Am Tubarao — A8ZA9 — position and weather

sailwx.info

Track history (hours):
 
Tides and Currents Weather Stations Pressure Air Temp Water Temp Dewpoint Dewpoint Depression Visibility Wind Speed Wind Dir Waves Ship Positions

Am Tubarao

Last reported at 2017-Feb-18 07:21 UTC. Time now 2017-Feb-21 05:33 UTC.
Position N 41°60' W 024°11'.

Length 230 m; draft 9 m.

Type: Cargo ship. MMSI: 636015171.

Date/timePositionNaut miles runAvg speedWind from/ knotsBaromVisibWave heightAir tempDewpointWater temp
2017-Feb-18 07:21N 41°60' W 024°11'1011.9
2017-Feb-18 06:30N 41°55' W 023°59'1111.9
2017-Feb-18 05:33N 41°49' W 023°46'  
2017-Feb-15 07:04N 35°58' W 005°52'811.7
2017-Feb-15 06:21N 35°58' W 005°42'1012.3
2017-Feb-15 05:33N 35°60' W 005°30'8 8.2
2017-Feb-15 04:33N 36°05' W 005°22'2 1.6
2017-Feb-15 03:34N 36°06' W 005°22'0 0.0
2017-Feb-15 02:31N 36°06' W 005°22'0 0.1
2017-Feb-15 01:31N 36°06' W 005°22'0 0.0
2017-Feb-15 00:31N 36°06' W 005°22'0 0.1
2017-Feb-14 23:33N 36°06' W 005°22'0 0.1
2017-Feb-14 22:34N 36°06' W 005°22'0 0.0
2017-Feb-14 21:34N 36°06' W 005°22'0 0.0
2017-Feb-14 20:33N 36°06' W 005°22'0 0.0
2017-Feb-14 19:30N 36°06' W 005°22'0 0.0
2017-Feb-14 18:31N 36°06' W 005°22'0 0.1
2017-Feb-14 17:33N 36°06' W 005°22'0 0.1
2017-Feb-14 16:31N 36°06' W 005°22'0 0.0
2017-Feb-14 15:33N 36°06' W 005°22'0 0.0
2017-Feb-14 14:33N 36°06' W 005°22'0 0.0
2017-Feb-14 13:33N 36°06' W 005°22'0 0.1
2017-Feb-14 12:33N 36°06' W 005°22'0 0.1
2017-Feb-14 11:33N 36°06' W 005°22'0 0.2
2017-Feb-14 10:34N 36°06' W 005°22'3 3.4
2017-Feb-14 09:33N 36°05' W 005°18'8 8.2
2017-Feb-14 08:34N 36°05' W 005°08'6 5.5
2017-Feb-14 07:29N 36°06' W 005°00'20812.3
2017-Feb-13 14:33N 37°18' W 000°57'1312.8
2017-Feb-13 13:33N 37°26' W 000°45'1212.6
2017-Feb-13 12:34N 37°35' W 000°33'16312.5
2017-Feb-12 23:28N 39°48' E 001°28'1314.0
2017-Feb-12 22:33N 39°57' E 001°39'1413.6
2017-Feb-12 21:33N 40°08' E 001°50'1313.4
2017-Feb-12 20:33N 40°18' E 002°02'1313.0
2017-Feb-12 19:33N 40°29' E 002°12'1313.2
2017-Feb-12 18:33N 40°39' E 002°23'1313.2
2017-Feb-12 17:33N 40°49' E 002°34'1313.0
2017-Feb-12 16:33N 40°59' E 002°45'17013.0
2017-Feb-12 03:30N 43°17' E 004°59'10 0.4
2017-Feb-11 03:03N 43°26' E 004°53'0 0.0
2017-Feb-11 01:04N 43°26' E 004°53'0 0.0
2017-Feb-10 23:04N 43°26' E 004°53'0 0.0
2017-Feb-10 22:21N 43°26' E 004°53'0 0.0
2017-Feb-10 21:04N 43°26' E 004°53'0 0.0
2017-Feb-10 19:05N 43°26' E 004°53'0 0.0
2017-Feb-10 17:05N 43°26' E 004°53'0 0.0
2017-Feb-10 15:05N 43°26' E 004°53'0 0.0
2017-Feb-10 13:06N 43°26' E 004°53'0 0.0
2017-Feb-10 11:06N 43°26' E 004°53'0 0.0
2017-Feb-10 09:06N 43°26' E 004°53'0 0.0
2017-Feb-10 07:07N 43°26' E 004°53'0 0.0
2017-Feb-10 05:07N 43°26' E 004°53'0 0.0
2017-Feb-10 03:07N 43°26' E 004°53'0 0.0
2017-Feb-10 01:08N 43°26' E 004°53'0 0.0
2017-Feb-09 23:08N 43°26' E 004°53'0 0.0
2017-Feb-09 21:08N 43°26' E 004°53'0 0.0
2017-Feb-09 19:09N 43°26' E 004°53'0 0.0
2017-Feb-09 17:09N 43°26' E 004°53'0 0.0
2017-Feb-09 15:09N 43°26' E 004°53'0 0.0
2017-Feb-09 13:10N 43°26' E 004°53'0 0.0
2017-Feb-09 11:10N 43°26' E 004°53'0 0.0
2017-Feb-09 09:10N 43°26' E 004°53'0 0.0
2017-Feb-09 07:11N 43°26' E 004°53'0 0.0
2017-Feb-09 05:11N 43°26' E 004°53'0 0.0
2017-Feb-09 03:11N 43°26' E 004°53'0 0.0
2017-Feb-09 01:12N 43°26' E 004°53'0 0.0
2017-Feb-08 23:12N 43°26' E 004°53'0 0.0
2017-Feb-08 21:12N 43°26' E 004°53'0 0.0
2017-Feb-08 19:13N 43°26' E 004°53'0 0.0
2017-Feb-08 17:13N 43°26' E 004°53'0 0.0
2017-Feb-08 13:14N 43°26' E 004°53'0 0.0
2017-Feb-08 11:14N 43°26' E 004°53'0 0.0
2017-Feb-08 09:14N 43°26' E 004°53'  
Track history (hours):
 
Tides and Currents Weather Stations Pressure Air Temp Water Temp Dewpoint Dewpoint Depression Visibility Wind Speed Wind Dir Waves Ship Positions

Am Tubarao

Last reported at 2017-Feb-18 07:21 UTC. Time now 2017-Feb-21 05:33 UTC.
Position N 41°60' W 024°11'.

Length 230 m; draft 9 m.

Type: Cargo ship. MMSI: 636015171.

Date/timePositionNaut miles runAvg speedWind from/ knotsBaromVisibWave heightAir tempDewpointWater temp
2017-Feb-18 07:21N 41°60' W 024°11'1011.9
2017-Feb-18 06:30N 41°55' W 023°59'1111.9
2017-Feb-18 05:33N 41°49' W 023°46'  
2017-Feb-15 07:04N 35°58' W 005°52'811.7
2017-Feb-15 06:21N 35°58' W 005°42'1012.3
2017-Feb-15 05:33N 35°60' W 005°30'8 8.2
2017-Feb-15 04:33N 36°05' W 005°22'2 1.6
2017-Feb-15 03:34N 36°06' W 005°22'0 0.0
2017-Feb-15 02:31N 36°06' W 005°22'0 0.1
2017-Feb-15 01:31N 36°06' W 005°22'0 0.0
2017-Feb-15 00:31N 36°06' W 005°22'0 0.1
2017-Feb-14 23:33N 36°06' W 005°22'0 0.1
2017-Feb-14 22:34N 36°06' W 005°22'0 0.0
2017-Feb-14 21:34N 36°06' W 005°22'0 0.0
2017-Feb-14 20:33N 36°06' W 005°22'0 0.0
2017-Feb-14 19:30N 36°06' W 005°22'0 0.0
2017-Feb-14 18:31N 36°06' W 005°22'0 0.1
2017-Feb-14 17:33N 36°06' W 005°22'0 0.1
2017-Feb-14 16:31N 36°06' W 005°22'0 0.0
2017-Feb-14 15:33N 36°06' W 005°22'0 0.0
2017-Feb-14 14:33N 36°06' W 005°22'0 0.0
2017-Feb-14 13:33N 36°06' W 005°22'0 0.1
2017-Feb-14 12:33N 36°06' W 005°22'0 0.1
2017-Feb-14 11:33N 36°06' W 005°22'0 0.2
2017-Feb-14 10:34N 36°06' W 005°22'3 3.4
2017-Feb-14 09:33N 36°05' W 005°18'8 8.2
2017-Feb-14 08:34N 36°05' W 005°08'6 5.5
2017-Feb-14 07:29N 36°06' W 005°00'20812.3
2017-Feb-13 14:33N 37°18' W 000°57'1312.8
2017-Feb-13 13:33N 37°26' W 000°45'1212.6
2017-Feb-13 12:34N 37°35' W 000°33'16312.5
2017-Feb-12 23:28N 39°48' E 001°28'1314.0
2017-Feb-12 22:33N 39°57' E 001°39'1413.6
2017-Feb-12 21:33N 40°08' E 001°50'1313.4
2017-Feb-12 20:33N 40°18' E 002°02'1313.0
2017-Feb-12 19:33N 40°29' E 002°12'1313.2
2017-Feb-12 18:33N 40°39' E 002°23'1313.2
2017-Feb-12 17:33N 40°49' E 002°34'1313.0
2017-Feb-12 16:33N 40°59' E 002°45'17013.0
2017-Feb-12 03:30N 43°17' E 004°59'10 0.4
2017-Feb-11 03:03N 43°26' E 004°53'0 0.0
2017-Feb-11 01:04N 43°26' E 004°53'0 0.0
2017-Feb-10 23:04N 43°26' E 004°53'0 0.0
2017-Feb-10 22:21N 43°26' E 004°53'0 0.0
2017-Feb-10 21:04N 43°26' E 004°53'0 0.0
2017-Feb-10 19:05N 43°26' E 004°53'0 0.0
2017-Feb-10 17:05N 43°26' E 004°53'0 0.0
2017-Feb-10 15:05N 43°26' E 004°53'0 0.0
2017-Feb-10 13:06N 43°26' E 004°53'0 0.0
2017-Feb-10 11:06N 43°26' E 004°53'0 0.0
2017-Feb-10 09:06N 43°26' E 004°53'0 0.0
2017-Feb-10 07:07N 43°26' E 004°53'0 0.0
2017-Feb-10 05:07N 43°26' E 004°53'0 0.0
2017-Feb-10 03:07N 43°26' E 004°53'0 0.0
2017-Feb-10 01:08N 43°26' E 004°53'0 0.0
2017-Feb-09 23:08N 43°26' E 004°53'0 0.0
2017-Feb-09 21:08N 43°26' E 004°53'0 0.0
2017-Feb-09 19:09N 43°26' E 004°53'0 0.0
2017-Feb-09 17:09N 43°26' E 004°53'0 0.0
2017-Feb-09 15:09N 43°26' E 004°53'0 0.0
2017-Feb-09 13:10N 43°26' E 004°53'0 0.0
2017-Feb-09 11:10N 43°26' E 004°53'0 0.0
2017-Feb-09 09:10N 43°26' E 004°53'0 0.0
2017-Feb-09 07:11N 43°26' E 004°53'0 0.0
2017-Feb-09 05:11N 43°26' E 004°53'0 0.0
2017-Feb-09 03:11N 43°26' E 004°53'0 0.0
2017-Feb-09 01:12N 43°26' E 004°53'0 0.0
2017-Feb-08 23:12N 43°26' E 004°53'0 0.0
2017-Feb-08 21:12N 43°26' E 004°53'0 0.0
2017-Feb-08 19:13N 43°26' E 004°53'0 0.0
2017-Feb-08 17:13N 43°26' E 004°53'0 0.0
2017-Feb-08 13:14N 43°26' E 004°53'0 0.0
2017-Feb-08 11:14N 43°26' E 004°53'0 0.0
2017-Feb-08 09:14N 43°26' E 004°53'  

Dump ship's entire track history